Time;durP1;ratioP1;P1;durP2;ratioP2;P2;SDS_P1;SDS_P2;PMS_P1;PMS_P2;Temp;Humidity;BMP_temperature;BMP_pressure;BME280_temperature;BME280_humidity;BME280_pressure;Samples;Min_cycle;Max_cycle;Signal;HPM_P1;HPM_P2
2021/10/09 00:01:22;;;;;;;70.40;42.33;;;10.30;99.90;;;;;;5109967;28;20051;-67
2021/10/09 00:03:49;;;;;;;67.80;41.40;;;10.20;99.90;;;;;;5111099;28;20026;-67
2021/10/09 00:06:14;;;;;;;72.63;42.58;;;10.10;99.90;;;;;;5110996;28;20030;-68
2021/10/09 00:08:40;;;;;;;77.95;43.70;;;10.00;99.90;;;;;;5110951;28;20103;-66
2021/10/09 00:11:07;;;;;;;71.40;43.20;;;9.80;99.90;;;;;;5110361;28;20058;-67
2021/10/09 00:13:33;;;;;;;80.18;44.85;;;9.80;99.90;;;;;;5110440;28;20040;-67
2021/10/09 00:15:58;;;;;;;82.00;46.35;;;9.70;99.90;;;;;;5110532;28;20024;-67
2021/10/09 00:18:24;;;;;;;79.63;45.97;;;9.70;99.90;;;;;;5108958;28;20081;-67
2021/10/09 00:20:49;;;;;;;79.25;44.70;;;9.70;99.90;;;;;;5110440;28;20495;-67
2021/10/09 00:23:15;;;;;;;79.22;45.65;;;9.60;99.90;;;;;;5110092;28;20031;-67
2021/10/09 00:25:41;;;;;;;79.78;45.15;;;9.50;99.90;;;;;;5099201;28;20066;-67
2021/10/09 00:28:06;;;;;;;89.15;45.63;;;9.60;99.90;;;;;;5096747;28;20024;-67
2021/10/09 00:30:32;;;;;;;78.10;45.45;;;9.60;99.90;;;;;;5096688;28;20385;-67
2021/10/09 00:32:57;;;;;;;84.55;46.72;;;9.50;99.90;;;;;;5096540;28;20382;-67
2021/10/09 00:35:23;;;;;;;83.90;47.67;;;9.50;99.90;;;;;;5096587;28;20032;-67
2021/10/09 00:37:48;;;;;;;88.13;49.05;;;9.40;99.90;;;;;;5096826;28;20082;-67
2021/10/09 00:40:14;;;;;;;86.20;48.80;;;9.40;99.90;;;;;;5096734;28;20089;-67
2021/10/09 00:42:39;;;;;;;96.18;50.90;;;9.40;99.90;;;;;;5096746;28;20055;-67
2021/10/09 00:45:06;;;;;;;86.65;50.08;;;9.50;99.90;;;;;;5096416;28;20518;-67
2021/10/09 00:47:32;;;;;;;84.22;47.67;;;9.40;99.90;;;;;;5096124;28;20042;-66
2021/10/09 00:49:57;;;;;;;80.57;46.85;;;9.40;99.90;;;;;;5096570;28;20027;-67
2021/10/09 00:52:25;;;;;;;93.25;48.50;;;9.30;99.90;;;;;;5096256;28;20103;-67
2021/10/09 00:54:51;;;;;;;82.88;46.42;;;9.40;99.90;;;;;;5096458;28;20028;-67
2021/10/09 00:57:21;;;;;;;84.68;48.17;;;9.30;99.90;;;;;;5095288;28;20028;-66
2021/10/09 00:59:49;;;;;;;93.05;50.70;;;9.20;99.90;;;;;;5096405;28;20052;-67
2021/10/09 01:02:16;;;;;;;95.45;49.83;;;9.20;99.90;;;;;;5095832;28;20561;-65
2021/10/09 01:04:45;;;;;;;92.43;51.75;;;9.20;99.90;;;;;;5096288;28;20032;-67
2021/10/09 01:07:10;;;;;;;96.47;50.20;;;9.20;99.90;;;;;;5096310;28;20062;-66
2021/10/09 01:09:36;;;;;;;102.88;51.00;;;9.20;99.90;;;;;;5096187;28;20060;-66
2021/10/09 01:12:01;;;;;;;93.15;51.28;;;9.20;99.90;;;;;;5094771;28;20031;-67
2021/10/09 01:14:27;;;;;;;95.60;51.00;;;9.20;99.90;;;;;;5095446;28;20142;-66
2021/10/09 01:16:53;;;;;;;99.47;52.72;;;9.10;99.90;;;;;;5095857;28;20492;-66
2021/10/09 01:19:18;;;;;;;100.13;53.28;;;9.20;99.90;;;;;;5096044;28;20028;-67
2021/10/09 01:21:47;;;;;;;94.55;51.95;;;9.10;99.90;;;;;;5094145;28;20106;-67
2021/10/09 01:24:16;;;;;;;99.22;51.78;;;9.10;99.90;;;;;;5094527;28;20389;-67
2021/10/09 01:26:42;;;;;;;97.80;50.95;;;9.00;99.90;;;;;;5094098;28;20024;-66
2021/10/09 01:29:10;;;;;;;96.03;51.63;;;8.90;99.90;;;;;;5094149;28;20024;-67
2021/10/09 01:31:36;;;;;;;90.10;50.13;;;8.90;99.90;;;;;;5095517;28;20051;-67
2021/10/09 01:34:02;;;;;;;104.20;52.28;;;8.80;99.90;;;;;;5095175;28;20082;-67
2021/10/09 01:36:30;;;;;;;95.28;51.05;;;8.80;99.90;;;;;;5094755;28;20453;-67
2021/10/09 01:38:56;;;;;;;97.60;51.28;;;8.70;99.90;;;;;;5095105;28;20469;-66
2021/10/09 01:41:21;;;;;;;96.80;51.90;;;8.60;99.90;;;;;;5095621;28;20024;-67
2021/10/09 01:43:47;;;;;;;104.18;55.25;;;8.50;99.90;;;;;;5094070;28;20528;-67
2021/10/09 01:46:12;;;;;;;105.70;56.10;;;8.50;99.90;;;;;;5094377;28;20098;-67
2021/10/09 01:48:39;;;;;;;107.78;55.60;;;8.60;99.90;;;;;;5095444;28;20024;-66
2021/10/09 01:51:07;;;;;;;109.05;55.85;;;8.50;99.90;;;;;;5095139;28;20067;-67
2021/10/09 01:53:34;;;;;;;99.32;53.20;;;8.50;99.90;;;;;;5095017;28;20462;-67
2021/10/09 01:56:00;;;;;;;108.05;55.75;;;8.50;99.90;;;;;;5094812;28;20027;-66
2021/10/09 01:58:26;;;;;;;104.18;53.28;;;8.40;99.90;;;;;;5095259;28;20157;-67
2021/10/09 02:00:52;;;;;;;118.07;59.28;;;8.30;99.90;;;;;;5095277;28;20058;-67
2021/10/09 02:03:20;;;;;;;114.13;59.15;;;8.30;99.90;;;;;;5095158;28;20032;-67
2021/10/09 02:05:46;;;;;;;111.00;57.33;;;8.40;99.90;;;;;;5094602;28;20101;-67
2021/10/09 02:08:12;;;;;;;118.35;59.17;;;8.40;99.90;;;;;;5095106;28;20020;-66
2021/10/09 02:10:58;;;;;;;118.07;59.92;;;8.40;99.90;;;;;;5095020;28;20024;-67
2021/10/09 02:13:34;;;;;;;121.13;59.10;;;8.50;99.90;;;;;;5094547;28;20048;-67
2021/10/09 02:16:09;;;;;;;119.57;59.90;;;8.50;99.90;;;;;;5093619;28;20099;-67
2021/10/09 02:18:41;;;;;;;118.78;58.63;;;8.40;99.90;;;;;;5094937;28;20512;-67
2021/10/09 02:26:38;;;;;;;112.47;58.72;;;8.40;99.90;;;;;;5094080;28;20025;-67
2021/10/09 02:29:03;;;;;;;110.60;58.10;;;8.40;99.90;;;;;;5094454;28;20054;-67
2021/10/09 02:31:29;;;;;;;137.68;62.60;;;8.30;99.90;;;;;;5094432;28;20415;-67
2021/10/09 02:33:55;;;;;;;112.68;56.88;;;8.30;99.90;;;;;;5094572;28;20024;-67
2021/10/09 02:36:20;;;;;;;114.25;58.05;;;8.20;99.90;;;;;;5094303;28;20049;-67
2021/10/09 02:38:46;;;;;;;122.32;59.75;;;8.20;99.90;;;;;;5094542;28;20374;-67
2021/10/09 02:41:12;;;;;;;113.38;54.28;;;8.10;99.90;;;;;;5094546;28;20365;-67
2021/10/09 02:43:38;;;;;;;113.10;57.75;;;8.00;99.90;;;;;;5094526;28;20431;-67
2021/10/09 02:46:04;;;;;;;114.13;58.22;;;8.00;99.90;;;;;;5093011;28;20057;-65
2021/10/09 02:48:30;;;;;;;120.80;59.95;;;8.00;99.90;;;;;;5094140;28;20048;-67
2021/10/09 02:50:56;;;;;;;124.15;60.15;;;8.00;99.90;;;;;;5093838;28;20024;-67
2021/10/09 02:53:21;;;;;;;123.20;60.38;;;8.00;99.90;;;;;;5094268;28;20351;-66
2021/10/09 02:55:47;;;;;;;117.20;59.85;;;8.00;99.90;;;;;;5094306;28;20441;-65
2021/10/09 02:58:12;;;;;;;126.70;60.28;;;7.90;99.90;;;;;;5092570;28;20021;-67
2021/10/09 03:00:38;;;;;;;122.32;58.80;;;7.90;99.90;;;;;;5094281;28;20059;-67
2021/10/09 03:03:03;;;;;;;121.03;59.88;;;7.90;99.90;;;;;;5094007;28;20028;-67
2021/10/09 03:05:29;;;;;;;125.38;60.35;;;7.80;99.90;;;;;;5093229;28;20028;-67
2021/10/09 03:07:55;;;;;;;110.50;58.63;;;7.80;99.90;;;;;;5095661;28;20453;-67
2021/10/09 03:10:21;;;;;;;129.65;62.88;;;7.80;99.90;;;;;;5095170;28;20024;-66
2021/10/09 03:12:47;;;;;;;119.35;58.40;;;7.80;99.90;;;;;;5094318;28;20051;-67
2021/10/09 03:15:12;;;;;;;123.25;60.72;;;7.80;99.90;;;;;;5094320;28;20035;-67
2021/10/09 03:17:39;;;;;;;126.78;60.08;;;7.80;99.90;;;;;;5093919;28;20054;-67
2021/10/09 03:20:06;;;;;;;124.45;62.25;;;7.70;99.90;;;;;;5094185;28;20020;-66
2021/10/09 03:22:32;;;;;;;125.38;61.60;;;7.70;99.90;;;;;;5094154;28;20020;-67
2021/10/09 03:24:58;;;;;;;133.75;62.67;;;7.80;99.90;;;;;;5093819;28;20027;-67
2021/10/09 03:27:23;;;;;;;120.57;61.15;;;7.80;99.90;;;;;;5094036;28;20030;-67
2021/10/09 03:29:49;;;;;;;128.95;62.30;;;7.80;99.90;;;;;;5094009;28;20032;-66
2021/10/09 03:32:14;;;;;;;117.70;59.58;;;7.70;99.90;;;;;;5093909;28;20465;-67
2021/10/09 03:34:40;;;;;;;127.50;61.72;;;7.60;99.90;;;;;;5093300;28;20035;-66
2021/10/09 03:37:08;;;;;;;123.82;59.00;;;7.70;99.90;;;;;;5093859;28;20035;-67
2021/10/09 03:39:36;;;;;;;118.68;59.33;;;7.60;99.90;;;;;;5092496;28;20074;-67
2021/10/09 03:42:07;;;;;;;115.72;57.30;;;7.50;99.90;;;;;;5093603;28;20463;-66
2021/10/09 03:44:39;;;;;;;97.85;51.03;;;7.40;99.90;;;;;;5093283;28;20532;-67
2021/10/09 03:49:49;;;;;;;112.78;55.47;;;7.20;99.90;;;;;;5112196;27;20284;-67
2021/10/09 03:52:47;;;;;;;112.22;55.72;;;7.20;99.90;;;;;;5111659;28;20020;-67
2021/10/09 03:55:04;;;;;;;132.82;60.40;;;7.10;99.90;;;;;;5111170;28;20427;-67
2021/10/09 03:57:30;;;;;;;124.15;60.38;;;7.10;99.90;;;;;;5111570;28;20051;-67
2021/10/09 03:59:55;;;;;;;120.40;57.15;;;7.10;99.90;;;;;;5111773;28;20056;-67
2021/10/09 04:02:21;;;;;;;130.57;61.58;;;7.10;99.90;;;;;;5111453;28;20389;-67
2021/10/09 04:04:46;;;;;;;117.85;56.25;;;7.20;99.90;;;;;;5111411;28;20485;-67
2021/10/09 04:07:12;;;;;;;111.03;54.42;;;7.10;99.90;;;;;;5111664;28;20028;-67
2021/10/09 04:09:37;;;;;;;131.93;59.75;;;7.00;99.90;;;;;;5111299;28;20133;-67
2021/10/09 04:12:03;;;;;;;136.07;62.03;;;7.10;99.90;;;;;;5109866;28;20024;-67
2021/10/09 04:14:29;;;;;;;137.18;61.83;;;7.10;99.90;;;;;;5110041;28;20465;-67
2021/10/09 04:16:54;;;;;;;149.35;64.68;;;7.20;99.90;;;;;;5111451;28;20028;-67
2021/10/09 04:19:20;;;;;;;150.65;67.20;;;7.30;99.90;;;;;;5111421;28;20120;-67
2021/10/09 04:21:45;;;;;;;149.50;67.25;;;7.30;99.90;;;;;;5111104;28;20030;-67
2021/10/09 04:24:11;;;;;;;159.93;67.05;;;7.40;99.90;;;;;;5109863;28;20473;-67
2021/10/09 04:26:36;;;;;;;140.65;64.10;;;7.30;99.90;;;;;;5111005;28;20457;-67
2021/10/09 04:29:02;;;;;;;135.00;61.40;;;7.20;99.90;;;;;;5110894;28;20032;-67
2021/10/09 04:31:27;;;;;;;136.90;63.03;;;7.20;99.90;;;;;;5111175;28;20473;-67
2021/10/09 04:33:53;;;;;;;132.20;62.35;;;7.10;99.90;;;;;;5111177;28;20028;-67
2021/10/09 04:36:18;;;;;;;144.50;59.72;;;7.10;99.90;;;;;;5111120;28;20385;-67
2021/10/09 04:38:44;;;;;;;129.98;60.53;;;7.10;99.90;;;;;;5111024;28;20106;-67
2021/10/09 04:41:09;;;;;;;128.13;60.13;;;7.10;99.90;;;;;;5111035;28;20034;-67
2021/10/09 04:43:35;;;;;;;135.23;61.55;;;7.10;99.90;;;;;;5109833;28;20063;-67
2021/10/09 04:46:00;;;;;;;128.93;60.20;;;7.10;99.90;;;;;;5110668;28;20546;-67
2021/10/09 04:48:26;;;;;;;129.07;60.55;;;7.10;99.90;;;;;;5110312;28;20044;-67
2021/10/09 04:50:51;;;;;;;139.73;62.33;;;7.10;99.90;;;;;;5110880;28;20024;-67
2021/10/09 04:53:17;;;;;;;132.80;62.30;;;7.00;99.90;;;;;;5092317;28;20453;-67
2021/10/09 04:55:42;;;;;;;125.13;57.17;;;7.00;99.90;;;;;;5110783;28;20024;-67
2021/10/09 04:58:08;;;;;;;122.72;59.45;;;7.00;99.90;;;;;;5110129;28;20036;-67
2021/10/09 05:00:33;;;;;;;127.68;58.03;;;7.00;99.90;;;;;;5099584;28;20082;-67
2021/10/09 05:02:59;;;;;;;131.68;60.20;;;6.90;99.90;;;;;;5095239;28;20025;-67
2021/10/09 05:05:25;;;;;;;130.73;57.97;;;6.90;99.90;;;;;;5096406;28;20024;-67
2021/10/09 05:07:50;;;;;;;120.65;58.05;;;6.80;99.90;;;;;;5095389;28;20024;-67
2021/10/09 05:10:16;;;;;;;127.15;60.53;;;6.80;99.90;;;;;;5096786;28;20024;-67
2021/10/09 05:12:41;;;;;;;129.48;59.53;;;6.90;99.90;;;;;;5096230;28;20020;-67
2021/10/09 05:15:07;;;;;;;126.35;59.83;;;7.00;99.90;;;;;;5096416;28;20027;-67
2021/10/09 05:17:33;;;;;;;129.27;59.13;;;7.00;99.90;;;;;;5094880;28;20023;-67
2021/10/09 05:20:00;;;;;;;127.20;60.35;;;7.00;99.90;;;;;;5096591;28;20453;-67
2021/10/09 05:22:26;;;;;;;137.40;60.67;;;7.00;99.90;;;;;;5096489;28;20070;-67
2021/10/09 05:24:53;;;;;;;133.43;60.83;;;7.00;99.90;;;;;;5096566;28;20016;-66
2021/10/09 05:27:19;;;;;;;134.25;61.30;;;7.00;99.90;;;;;;5094971;28;20160;-67
2021/10/09 05:29:47;;;;;;;135.50;61.10;;;7.00;99.90;;;;;;5096170;28;20027;-67
2021/10/09 05:32:19;;;;;;;140.50;63.30;;;7.00;99.90;;;;;;5096413;28;20035;-66
2021/10/09 05:34:45;;;;;;;134.35;61.33;;;7.00;99.90;;;;;;5096424;28;20028;-66
2021/10/09 05:37:10;;;;;;;134.57;62.63;;;7.00;99.90;;;;;;5095717;28;20036;-66
2021/10/09 05:39:37;;;;;;;138.20;62.53;;;7.10;99.90;;;;;;5095922;28;20028;-66
2021/10/09 05:42:03;;;;;;;137.20;62.45;;;7.10;99.90;;;;;;5094756;28;20028;-66
2021/10/09 05:44:28;;;;;;;128.30;60.65;;;7.10;99.90;;;;;;5096135;28;20028;-66
2021/10/09 05:46:54;;;;;;;132.68;60.35;;;7.10;99.90;;;;;;5096010;28;20032;-66
2021/10/09 05:49:20;;;;;;;127.88;59.35;;;7.10;99.90;;;;;;5095276;28;20040;-65
2021/10/09 05:52:06;;;;;;;118.00;58.53;;;7.10;99.90;;;;;;5095684;28;20028;-65
2021/10/09 05:57:38;;;;;;;119.85;57.30;;;7.10;99.90;;;;;;5095074;28;20427;-66
2021/10/09 06:00:25;;;;;;;111.03;54.65;;;7.20;99.90;;;;;;5095147;28;20048;-66
2021/10/09 06:47:21;;;;;;;46.78;29.83;;;10.60;99.90;;;;;;5093325;28;20028;-67
2021/10/09 07:00:46;;;;;;;41.10;26.15;;;13.90;99.90;;;;;;5111151;28;20097;-66
2021/10/09 07:03:17;;;;;;;38.45;25.92;;;14.20;99.90;;;;;;5111801;28;20051;-66
2021/10/09 07:05:42;;;;;;;43.50;26.02;;;13.50;99.90;;;;;;5111420;28;20515;-66
2021/10/09 07:08:09;;;;;;;44.80;26.80;;;14.20;99.90;;;;;;5111651;28;20031;-66
2021/10/09 07:10:38;;;;;;;40.30;25.15;;;15.00;99.90;;;;;;5110986;28;20493;-66
2021/10/09 07:13:03;;;;;;;41.20;25.38;;;14.90;99.90;;;;;;5111609;28;20043;-66
2021/10/09 07:15:29;;;;;;;41.13;24.77;;;15.60;99.90;;;;;;5111572;28;20450;-66
2021/10/09 07:17:54;;;;;;;40.00;24.42;;;15.90;99.90;;;;;;5111160;28;20024;-66
2021/10/09 07:20:20;;;;;;;34.92;24.33;;;16.50;99.90;;;;;;5111151;28;20024;-66
2021/10/09 07:22:48;;;;;;;32.25;23.95;;;16.40;99.90;;;;;;5111453;28;20024;-66
2021/10/09 07:25:14;;;;;;;35.85;22.27;;;16.90;99.90;;;;;;5110795;28;20013;-66
2021/10/09 07:27:39;;;;;;;30.90;21.83;;;17.20;99.90;;;;;;5111320;28;20062;-66
2021/10/09 07:30:05;;;;;;;31.70;22.35;;;16.90;99.90;;;;;;5111158;28;20028;-66
2021/10/09 07:32:31;;;;;;;31.17;21.15;;;17.60;99.90;;;;;;5111263;28;20020;-66
2021/10/09 07:34:57;;;;;;;30.55;20.48;;;17.50;99.90;;;;;;5111197;28;20069;-66
2021/10/09 07:37:22;;;;;;;32.47;20.75;;;17.40;99.90;;;;;;5110598;28;20376;-66
2021/10/09 07:39:48;;;;;;;31.42;21.27;;;17.20;99.90;;;;;;5111061;28;20034;-66
2021/10/09 07:42:13;;;;;;;32.70;19.92;;;17.70;99.90;;;;;;5111014;28;20023;-66
2021/10/09 07:44:39;;;;;;;37.22;21.77;;;18.10;99.90;;;;;;5110970;28;20024;-66
2021/10/09 07:47:06;;;;;;;35.33;21.58;;;18.10;99.90;;;;;;5110981;28;20024;-66
2021/10/09 07:49:32;;;;;;;34.00;21.40;;;18.50;99.90;;;;;;5110331;28;20016;-67
2021/10/09 07:51:58;;;;;;;28.52;20.17;;;18.50;99.90;;;;;;5110122;28;20386;-67
2021/10/09 07:54:23;;;;;;;28.58;19.48;;;18.30;99.90;;;;;;5110800;28;20020;-67
2021/10/09 07:56:49;;;;;;;27.92;20.20;;;18.50;99.90;;;;;;5110480;28;20042;-67
2021/10/09 07:59:14;;;;;;;32.08;20.20;;;18.60;99.90;;;;;;5110394;28;20444;-67
2021/10/09 08:01:40;;;;;;;29.73;19.45;;;18.10;99.90;;;;;;5109608;28;20112;-67
2021/10/09 08:04:08;;;;;;;27.65;19.15;;;18.80;99.90;;;;;;5095067;28;20028;-67
2021/10/09 08:06:34;;;;;;;29.92;19.48;;;18.50;99.90;;;;;;5096982;28;20020;-67
2021/10/09 08:09:00;;;;;;;30.05;18.05;;;18.50;99.90;;;;;;5096903;28;20458;-66
2021/10/09 08:11:25;;;;;;;29.60;19.48;;;18.80;99.90;;;;;;5096518;28;20069;-67
2021/10/09 08:13:51;;;;;;;34.10;19.00;;;19.30;99.90;;;;;;5096566;28;20047;-67
2021/10/09 08:16:16;;;;;;;32.88;18.65;;;19.10;99.90;;;;;;5095502;28;20082;-67
2021/10/09 08:18:42;;;;;;;30.15;18.80;;;18.80;99.90;;;;;;5096729;28;20031;-67
2021/10/09 08:21:08;;;;;;;28.42;18.45;;;18.30;99.90;;;;;;5096098;28;20034;-67
2021/10/09 08:23:47;;;;;;;31.65;18.73;;;18.40;99.90;;;;;;5096654;28;20028;-66
2021/10/09 08:39:45;;;;;;;37.25;19.70;;;18.50;99.90;;;;;;5096115;28;20487;-67
2021/10/09 08:42:11;;;;;;;29.08;18.05;;;18.50;99.90;;;;;;5096042;28;20067;-67
2021/10/09 08:44:39;;;;;;;28.98;17.92;;;17.90;99.90;;;;;;5095978;28;20406;-67
2021/10/09 08:47:07;;;;;;;29.88;17.70;;;18.10;99.90;;;;;;5096219;28;20108;-67
2021/10/09 08:49:33;;;;;;;28.95;18.08;;;18.40;99.90;;;;;;5096197;28;20024;-67
2021/10/09 08:52:00;;;;;;;27.75;18.08;;;17.50;99.90;;;;;;5095425;28;20127;-67
2021/10/09 08:54:35;;;;;;;30.52;18.17;;;18.30;99.90;;;;;;5094921;28;20030;-67
2021/10/09 08:57:12;;;;;;;29.45;18.85;;;18.30;99.90;;;;;;5095764;28;20048;-67
2021/10/09 08:59:46;;;;;;;26.48;18.30;;;17.90;99.90;;;;;;5095717;28;20024;-66
2021/10/09 09:02:24;;;;;;;33.30;19.13;;;17.90;99.90;;;;;;5095615;28;20085;-67
2021/10/09 09:05:02;;;;;;;27.67;18.20;;;18.00;99.90;;;;;;5095848;28;20156;-66
2021/10/09 09:27:38;;;;;;;28.48;19.38;;;18.90;99.90;;;;;;5094706;28;20080;-66
2021/10/09 09:32:45;;;;;;;30.63;18.27;;;19.20;99.90;;;;;;5093709;28;20393;-67
2021/10/09 09:35:33;;;;;;;28.27;18.15;;;19.60;99.90;;;;;;5093672;28;20031;-67
2021/10/09 09:40:44;;;;;;;27.45;17.83;;;19.60;99.90;;;;;;5093640;28;20020;-68
2021/10/09 09:43:11;;;;;;;28.98;17.65;;;19.80;99.90;;;;;;5094618;28;20024;-67
2021/10/09 09:45:38;;;;;;;27.70;17.85;;;19.60;99.90;;;;;;5095093;28;20021;-67
2021/10/09 09:48:05;;;;;;;27.60;17.38;;;20.00;99.90;;;;;;5094665;28;20099;-67
2021/10/09 09:50:31;;;;;;;31.33;18.10;;;19.60;99.90;;;;;;5092890;28;20378;-67
2021/10/09 09:53:01;;;;;;;25.35;17.02;;;20.30;99.90;;;;;;5094922;28;20016;-67
2021/10/09 09:55:27;;;;;;;23.85;17.38;;;21.20;99.90;;;;;;5093655;28;20463;-67
2021/10/09 09:57:53;;;;;;;26.15;16.67;;;21.00;99.90;;;;;;5094471;28;20028;-67
2021/10/09 10:00:19;;;;;;;28.75;17.88;;;20.80;99.90;;;;;;5093248;28;20107;-67
2021/10/09 10:02:51;;;;;;;30.25;17.80;;;19.80;99.90;;;;;;5094319;28;20504;-67
2021/10/09 10:05:21;;;;;;;26.95;16.75;;;19.80;99.90;;;;;;5094605;28;20081;-67
2021/10/09 10:07:47;;;;;;;25.48;17.48;;;20.30;99.90;;;;;;5094467;28;20016;-67
2021/10/09 10:10:13;;;;;;;27.17;16.98;;;20.40;99.90;;;;;;5094116;28;20517;-67
2021/10/09 10:12:40;;;;;;;25.20;17.45;;;20.50;99.90;;;;;;5094439;28;20028;-67
2021/10/09 10:15:09;;;;;;;30.83;16.58;;;20.40;99.90;;;;;;5094424;28;20023;-67
2021/10/09 10:17:43;;;;;;;28.75;17.33;;;20.60;99.90;;;;;;5094123;28;20065;-68
2021/10/09 10:20:11;;;;;;;26.75;17.67;;;20.70;99.90;;;;;;5093823;28;20028;-67
2021/10/09 10:22:42;;;;;;;28.52;17.30;;;21.20;99.90;;;;;;5092824;28;20035;-66
2021/10/09 10:25:29;;;;;;;29.35;17.80;;;21.30;99.90;;;;;;5093449;28;20411;-68
2021/10/09 10:28:05;;;;;;;25.08;16.58;;;21.40;99.90;;;;;;5094480;28;20020;-68
2021/10/09 10:30:35;;;;;;;23.63;16.35;;;21.20;99.90;;;;;;5093835;28;20020;-66
2021/10/09 10:41:03;;;;;;;27.02;17.05;;;21.10;99.70;;;;;;5153273;27;20425;-67
2021/10/09 10:49:28;;;;;;;24.90;16.10;;;21.20;99.90;;;;;;5091736;28;20289;-67
2021/10/09 10:52:08;;;;;;;23.80;15.75;;;21.30;99.30;;;;;;5090600;28;20033;-67
2021/10/09 10:54:35;;;;;;;22.92;15.25;;;20.60;98.60;;;;;;5090117;28;20021;-67
2021/10/09 10:59:57;;;;;;;24.63;15.32;;;21.10;99.10;;;;;;5091652;28;20452;-66
2021/10/09 11:02:39;;;;;;;24.88;15.45;;;20.90;99.90;;;;;;5091316;28;20024;-67
2021/10/09 11:05:08;;;;;;;26.88;16.25;;;20.80;99.90;;;;;;5090992;28;20074;-65
2021/10/09 11:07:36;;;;;;;23.88;15.85;;;20.40;99.80;;;;;;5091136;28;20028;-66
2021/10/09 11:10:06;;;;;;;26.17;17.27;;;19.60;99.90;;;;;;5090933;28;20036;-67
2021/10/09 11:12:35;;;;;;;30.17;17.30;;;19.10;99.90;;;;;;5090841;28;20028;-67
2021/10/09 11:15:09;;;;;;;24.38;17.80;;;18.90;99.90;;;;;;5089281;28;20020;-67
2021/10/09 11:17:36;;;;;;;32.72;17.38;;;18.50;99.90;;;;;;5090877;28;20463;-67
2021/10/09 11:20:04;;;;;;;29.27;16.50;;;18.80;99.90;;;;;;5090957;28;20025;-67
2021/10/09 11:22:39;;;;;;;27.10;16.55;;;18.80;99.90;;;;;;5090715;28;20020;-67
2021/10/09 11:25:06;;;;;;;25.85;18.38;;;18.60;99.90;;;;;;5090636;28;20021;-67
2021/10/09 11:27:36;;;;;;;24.02;16.88;;;18.20;99.90;;;;;;5090828;28;20021;-67
2021/10/09 11:30:08;;;;;;;31.35;18.27;;;18.30;99.90;;;;;;5090498;28;20058;-67
2021/10/09 11:32:37;;;;;;;27.33;18.33;;;18.00;99.90;;;;;;5090431;28;20027;-67
2021/10/09 11:35:04;;;;;;;26.60;16.60;;;18.10;99.90;;;;;;5090711;28;20127;-67
2021/10/09 11:37:32;;;;;;;32.08;17.58;;;18.20;99.90;;;;;;5090402;28;20082;-67
2021/10/09 11:40:00;;;;;;;29.65;16.70;;;18.20;99.90;;;;;;5088834;28;20021;-67
2021/10/09 11:42:29;;;;;;;27.20;16.63;;;18.20;99.90;;;;;;5090366;28;20029;-66
2021/10/09 11:45:14;;;;;;;26.38;15.65;;;18.10;99.90;;;;;;5089209;28;20024;-67
2021/10/09 11:53:49;;;;;;;22.85;15.70;;;18.20;99.90;;;;;;5089689;28;20040;-67
2021/10/09 11:56:04;;;;;;;28.73;16.42;;;18.50;99.90;;;;;;5089761;28;20515;-67
2021/10/09 11:58:30;;;;;;;22.75;14.70;;;18.10;99.90;;;;;;5089682;28;20490;-66
2021/10/09 12:00:56;;;;;;;27.88;15.05;;;18.10;99.90;;;;;;5090285;28;20025;-66
2021/10/09 12:06:16;;;;;;;26.77;16.27;;;18.10;99.90;;;;;;5111569;27;20383;-66
2021/10/09 12:08:51;;;;;;;26.63;17.23;;;18.40;99.90;;;;;;5111696;28;20028;-66
2021/10/09 12:14:04;;;;;;;26.70;16.08;;;18.40;99.90;;;;;;5071360;28;20758;-66
2021/10/09 12:16:41;;;;;;;29.40;15.52;;;18.50;99.90;;;;;;5071091;28;20094;-67
2021/10/09 12:19:10;;;;;;;27.27;15.50;;;18.50;99.90;;;;;;5071337;28;20016;-68
2021/10/09 12:21:39;;;;;;;27.25;16.67;;;18.80;99.90;;;;;;5070758;28;20059;-66
2021/10/09 12:24:16;;;;;;;26.33;14.80;;;18.90;99.90;;;;;;5070900;28;20056;-66
2021/10/09 12:26:42;;;;;;;22.02;15.38;;;19.10;99.90;;;;;;5071159;28;20021;-66
2021/10/09 12:29:17;;;;;;;29.30;15.40;;;18.50;99.90;;;;;;5071074;28;20033;-67
2021/10/09 12:31:45;;;;;;;29.17;16.33;;;18.60;99.90;;;;;;5070675;28;20025;-67
2021/10/09 12:34:32;;;;;;;34.10;15.50;;;18.50;99.90;;;;;;5070713;28;20036;-66
2021/10/09 12:37:22;;;;;;;23.88;15.60;;;18.60;99.90;;;;;;5070425;28;20020;-67
2021/10/09 12:40:08;;;;;;;24.05;15.55;;;18.40;99.90;;;;;;5085643;28;20017;-66
2021/10/09 12:42:34;;;;;;;29.55;16.25;;;18.50;99.90;;;;;;5069378;28;20029;-66
2021/10/09 12:45:01;;;;;;;27.42;14.98;;;18.20;99.90;;;;;;5070800;28;20074;-67
2021/10/09 12:47:27;;;;;;;26.35;14.45;;;18.30;99.90;;;;;;5070779;28;20024;-66
2021/10/09 12:49:52;;;;;;;25.25;14.80;;;18.50;99.90;;;;;;5070715;28;20102;-67
2021/10/09 12:52:18;;;;;;;23.00;14.77;;;18.60;99.90;;;;;;5069139;28;20107;-67
2021/10/09 12:54:43;;;;;;;23.33;14.57;;;18.40;99.90;;;;;;5070328;28;20029;-67
2021/10/09 12:57:09;;;;;;;25.02;14.15;;;18.30;99.90;;;;;;5068719;28;20367;-67
2021/10/09 12:59:35;;;;;;;23.58;14.40;;;18.40;99.90;;;;;;5070540;28;20565;-67
2021/10/09 13:02:03;;;;;;;33.25;15.73;;;18.60;99.90;;;;;;5070461;28;20159;-66
2021/10/09 13:04:29;;;;;;;19.58;12.82;;;18.60;99.90;;;;;;5070416;28;20021;-67
2021/10/09 13:06:54;;;;;;;23.95;13.60;;;18.80;99.90;;;;;;5070366;28;20087;-67
2021/10/09 13:09:20;;;;;;;26.15;14.55;;;18.80;99.90;;;;;;5070235;28;20361;-67
2021/10/09 13:11:49;;;;;;;23.33;13.75;;;18.90;99.90;;;;;;5069932;28;20031;-67
2021/10/09 13:14:15;;;;;;;22.15;14.27;;;18.80;99.90;;;;;;5069837;28;20039;-67
2021/10/09 13:16:40;;;;;;;26.05;14.27;;;18.80;99.90;;;;;;5069756;28;20021;-67
2021/10/09 13:19:06;;;;;;;24.15;14.75;;;18.60;99.90;;;;;;5070069;28;20025;-67
2021/10/09 13:21:32;;;;;;;20.00;13.70;;;18.50;99.90;;;;;;5068726;28;20017;-67
2021/10/09 13:23:57;;;;;;;27.08;13.75;;;18.60;99.90;;;;;;5064165;28;20032;-67
2021/10/09 13:26:23;;;;;;;23.95;14.00;;;18.50;99.90;;;;;;5056465;28;20035;-67
2021/10/09 13:28:48;;;;;;;24.95;12.50;;;18.50;99.90;;;;;;5056067;28;20074;-67
2021/10/09 13:31:14;;;;;;;21.17;12.32;;;18.40;99.90;;;;;;5056561;28;20142;-67
2021/10/09 13:33:39;;;;;;;21.83;12.70;;;18.30;99.90;;;;;;5056256;28;20376;-67
2021/10/09 13:36:06;;;;;;;20.23;11.95;;;18.10;99.90;;;;;;5056541;28;20025;-67
2021/10/09 13:38:33;;;;;;;20.25;11.73;;;18.10;99.90;;;;;;5055080;28;20031;-67
2021/10/09 13:40:59;;;;;;;17.65;11.27;;;18.10;99.90;;;;;;5056183;28;20021;-67
2021/10/09 13:43:24;;;;;;;21.10;11.65;;;18.30;99.90;;;;;;5056132;28;20021;-67
2021/10/09 13:45:50;;;;;;;17.88;10.73;;;18.40;99.90;;;;;;5056090;28;20422;-67
2021/10/09 13:48:15;;;;;;;15.77;10.55;;;18.40;99.90;;;;;;5056053;28;20033;-67
2021/10/09 13:50:50;;;;;;;16.35;10.93;;;18.50;99.90;;;;;;5056298;28;20025;-67
2021/10/09 13:53:16;;;;;;;20.10;11.90;;;18.50;99.90;;;;;;5055859;28;20029;-67
2021/10/09 13:55:42;;;;;;;18.27;9.93;;;18.50;99.90;;;;;;5055888;28;20439;-67
2021/10/09 13:58:09;;;;;;;19.15;10.25;;;18.50;99.90;;;;;;5056189;28;20025;-67
2021/10/09 14:00:36;;;;;;;21.33;9.88;;;18.50;99.90;;;;;;5056066;28;20049;-67
2021/10/09 14:03:02;;;;;;;17.60;8.88;;;18.30;99.90;;;;;;5055077;28;20379;-67
2021/10/09 14:05:29;;;;;;;16.70;8.73;;;18.30;99.90;;;;;;5056090;28;20071;-67
2021/10/09 14:07:55;;;;;;;18.85;9.15;;;18.50;99.90;;;;;;5055754;28;20112;-67
2021/10/09 14:10:21;;;;;;;15.80;9.50;;;18.30;99.90;;;;;;5055613;28;20449;-67
2021/10/09 14:12:46;;;;;;;12.07;8.85;;;18.10;99.90;;;;;;5055259;28;20049;-67
2021/10/09 14:15:13;;;;;;;12.07;8.00;;;18.20;99.90;;;;;;5055832;28;20036;-67
2021/10/09 14:17:38;;;;;;;16.10;9.20;;;18.30;99.90;;;;;;5055247;28;20017;-67
2021/10/09 14:20:06;;;;;;;15.27;8.90;;;18.30;99.90;;;;;;5055776;28;20034;-67
2021/10/09 14:22:32;;;;;;;14.00;8.57;;;18.20;99.90;;;;;;5055144;28;20024;-67
2021/10/09 14:24:58;;;;;;;12.45;7.80;;;18.10;99.90;;;;;;5054227;28;20039;-67
2021/10/09 14:27:27;;;;;;;19.05;8.10;;;18.20;99.90;;;;;;5055316;28;20021;-67
2021/10/09 14:29:53;;;;;;;15.98;8.43;;;18.10;99.90;;;;;;5055268;28;20117;-67
2021/10/09 14:32:19;;;;;;;19.55;8.20;;;18.20;99.90;;;;;;5055446;28;20108;-67
2021/10/09 14:34:45;;;;;;;19.10;9.27;;;18.10;99.90;;;;;;5055074;28;20449;-67
2021/10/09 14:37:10;;;;;;;16.52;9.07;;;18.10;99.90;;;;;;5054590;28;20025;-67
2021/10/09 14:39:36;;;;;;;14.75;9.05;;;17.90;99.90;;;;;;5055085;28;20020;-67
2021/10/09 14:42:02;;;;;;;17.38;9.05;;;17.90;99.90;;;;;;5055320;28;20017;-67
2021/10/09 14:44:27;;;;;;;19.38;9.30;;;17.80;99.90;;;;;;5055042;28;20378;-67